createdAt,value
2018-03-21T00:00:04.145Z,5.2
2018-03-21T00:01:04.466Z,5.25
2018-03-21T00:02:04.165Z,5.23
2018-03-21T00:03:04.461Z,5.25
2018-03-21T00:04:04.197Z,5.25
2018-03-21T00:05:04.769Z,5.26
2018-03-21T00:06:04.776Z,5.29
2018-03-21T00:07:04.548Z,5.23
2018-03-21T00:08:04.796Z,5.23
2018-03-21T00:09:04.801Z,5.25
2018-03-21T00:10:04.812Z,5.25
2018-03-21T00:11:04.823Z,5.17
2018-03-21T00:12:04.545Z,5.23
2018-03-21T00:13:04.836Z,5.26
2018-03-21T00:14:04.568Z,5.23
2018-03-21T00:15:04.292Z,5.25
2018-03-21T00:16:04.593Z,5.2
2018-03-21T00:17:04.600Z,5.26
2018-03-21T00:18:04.886Z,5.2
2018-03-21T00:19:04.968Z,5.23
2018-03-21T00:20:04.624Z,5.21
2018-03-21T00:21:04.633Z,5.28
2018-03-21T00:22:04.940Z,5.23
2018-03-21T00:23:04.657Z,5.23
2018-03-21T00:24:04.699Z,5.18
2018-03-21T00:25:04.724Z,5.25
2018-03-21T00:26:04.686Z,5.17
2018-03-21T00:27:04.693Z,5.21
2018-03-21T00:28:05.003Z,5.2
2018-03-21T00:29:04.720Z,5.23
2018-03-21T00:30:04.783Z,5.18
2018-03-21T00:31:04.448Z,5.3
2018-03-21T00:32:05.032Z,5.23
2018-03-21T00:33:04.758Z,5.3
2018-03-21T00:34:04.762Z,5.3
2018-03-21T00:35:04.538Z,5.23
2018-03-21T00:36:04.788Z,5.18
2018-03-21T00:37:05.086Z,5.32
2018-03-21T00:38:05.085Z,5.17
2018-03-21T00:39:04.528Z,5.28
2018-03-21T00:40:04.821Z,5.26
2018-03-21T00:41:04.551Z,5.3
2018-03-21T00:42:05.122Z,5.28
2018-03-21T00:43:04.850Z,5.23
2018-03-21T00:44:05.146Z,5.17
2018-03-21T00:45:05.162Z,5.23
2018-03-21T00:46:04.903Z,5.23
2018-03-21T00:47:04.889Z,5.17
2018-03-21T00:48:04.903Z,5.23
2018-03-21T00:49:04.629Z,5.29
2018-03-21T00:50:04.640Z,5.15
2018-03-21T00:51:05.212Z,5.28
2018-03-21T00:52:04.670Z,5.28
2018-03-21T00:53:04.949Z,5.23
2018-03-21T00:54:04.984Z,5.23
2018-03-21T00:55:05.255Z,5.2
2018-03-21T00:56:05.260Z,5.2
2018-03-21T00:57:05.274Z,5.26
2018-03-21T00:58:04.996Z,5.21
2018-03-21T00:59:05.009Z,5.23
2018-03-21T01:00:05.033Z,5.23
2018-03-21T01:01:05.321Z,5.21
2018-03-21T01:02:05.038Z,5.2
2018-03-21T01:03:05.048Z,5.21
2018-03-21T01:04:05.059Z,5.18
2018-03-21T01:05:05.357Z,5.2
2018-03-21T01:06:05.373Z,5.18
2018-03-21T01:07:05.366Z,5.21
2018-03-21T01:08:05.386Z,5.21
2018-03-21T01:09:05.392Z,5.15
2018-03-21T01:10:05.168Z,5.26
2018-03-21T01:11:05.448Z,5.18
2018-03-21T01:12:05.419Z,5.18
2018-03-21T01:13:05.431Z,5.21
2018-03-21T01:14:05.442Z,5.2
2018-03-21T01:15:05.454Z,5.21
2018-03-21T01:16:05.194Z,5.2
2018-03-21T01:17:05.474Z,5.2
2018-03-21T01:18:05.477Z,5.18
2018-03-21T01:19:05.205Z,5.21
2018-03-21T01:20:04.931Z,5.21
2018-03-21T01:21:05.505Z,5.17
2018-03-21T01:22:05.311Z,5.17
2018-03-21T01:23:04.957Z,5.18
2018-03-21T01:24:05.283Z,5.15
2018-03-21T01:25:05.315Z,5.23
2018-03-21T01:26:05.558Z,5.15
2018-03-21T01:27:05.564Z,5.17
2018-03-21T01:28:05.575Z,5.12
2018-03-21T01:29:05.298Z,5.12
2018-03-21T01:30:05.104Z,5.15
2018-03-21T01:31:05.602Z,5.18
2018-03-21T01:32:05.346Z,5.17
2018-03-21T01:33:05.339Z,5.12
2018-03-21T01:34:05.346Z,5.17
2018-03-21T01:35:05.687Z,5.17
2018-03-21T01:36:05.104Z,5.14
2018-03-21T01:37:05.376Z,5.18
2018-03-21T01:38:05.410Z,5.14
2018-03-21T01:39:05.684Z,5.11
2018-03-21T01:40:05.758Z,5.12
2018-03-21T01:41:05.700Z,5.11
2018-03-21T01:42:05.707Z,5.15
2018-03-21T01:43:05.732Z,5.1
2018-03-21T01:44:05.478Z,5.2
2018-03-21T01:45:05.509Z,5.08
2018-03-21T01:46:05.203Z,5.1
2018-03-21T01:47:05.550Z,5.04
2018-03-21T01:48:05.761Z,5.1
2018-03-21T01:49:05.784Z,5.15
2018-03-21T01:50:05.557Z,5.12
2018-03-21T01:51:05.806Z,5.08
2018-03-21T01:52:05.266Z,5.12
2018-03-21T01:53:05.531Z,5.08
2018-03-21T01:54:05.554Z,5.15
2018-03-21T01:55:05.559Z,5.1
2018-03-21T01:56:05.559Z,5.07
2018-03-21T01:57:05.852Z,5.08
2018-03-21T01:58:05.600Z,5.1
2018-03-21T01:59:05.305Z,5.1
2018-03-21T02:00:05.893Z,5.11
2018-03-21T02:01:05.624Z,5.08
2018-03-21T02:02:05.623Z,5.05
2018-03-21T02:03:05.351Z,5.11
2018-03-21T02:04:05.646Z,5.12
2018-03-21T02:05:05.949Z,5.08
2018-03-21T02:06:05.956Z,5.1
2018-03-21T02:07:05.668Z,5.11
2018-03-21T02:08:05.702Z,5.08
2018-03-21T02:09:05.973Z,5.07
2018-03-21T02:10:05.434Z,5.07
2018-03-21T02:11:05.998Z,5.08
2018-03-21T02:12:06.011Z,5.11
2018-03-21T02:13:05.728Z,5.08
2018-03-21T02:14:06.038Z,4.96
2018-03-21T02:15:05.463Z,5.02
2018-03-21T02:16:05.788Z,4.97
2018-03-21T02:17:06.058Z,5.02
2018-03-21T02:18:05.789Z,4.97
2018-03-21T02:19:05.503Z,5.07
2018-03-21T02:20:05.797Z,5.02
2018-03-21T02:21:05.802Z,5.02
2018-03-21T02:22:05.549Z,4.99
2018-03-21T02:23:05.833Z,5.02
2018-03-21T02:24:06.140Z,5.04
2018-03-21T02:25:05.851Z,4.96
2018-03-21T02:26:05.859Z,5.02
2018-03-21T02:27:05.580Z,5.02
2018-03-21T02:28:05.896Z,4.99
2018-03-21T02:29:06.169Z,5
2018-03-21T02:30:05.917Z,5.04
2018-03-21T02:31:05.916Z,5
2018-03-21T02:32:06.219Z,4.96
2018-03-21T02:33:06.215Z,5.04
2018-03-21T02:34:05.935Z,5.04
2018-03-21T02:35:05.970Z,5.02
2018-03-21T02:36:06.247Z,5.05
2018-03-21T02:37:05.963Z,4.96
2018-03-21T02:38:06.275Z,4.94
2018-03-21T02:39:05.982Z,4.97
2018-03-21T02:40:06.296Z,5.04
2018-03-21T02:41:06.286Z,4.97
2018-03-21T02:42:06.306Z,4.99
2018-03-21T02:43:05.740Z,4.96
2018-03-21T02:44:06.058Z,4.93
2018-03-21T02:45:06.043Z,4.99
2018-03-21T02:46:05.776Z,4.94
2018-03-21T02:47:06.345Z,4.97
2018-03-21T02:48:05.801Z,4.86
2018-03-21T02:49:06.080Z,4.9
2018-03-21T02:50:06.384Z,4.9
2018-03-21T02:51:06.106Z,4.9
2018-03-21T02:52:05.820Z,4.87
2018-03-21T02:53:06.407Z,4.9
2018-03-21T02:54:06.139Z,4.87
2018-03-21T02:55:06.133Z,4.84
2018-03-21T02:56:06.195Z,4.89
2018-03-21T02:57:06.156Z,4.89
2018-03-21T02:58:06.173Z,4.9
2018-03-21T02:59:06.485Z,4.93
2018-03-21T03:00:06.188Z,4.87
2018-03-21T03:01:06.242Z,4.92
2018-03-21T03:02:06.488Z,4.93
2018-03-21T03:03:05.926Z,4.82
2018-03-21T03:04:06.509Z,4.86
2018-03-21T03:05:06.229Z,4.8
2018-03-21T03:06:06.316Z,4.86
2018-03-21T03:07:06.250Z,4.82
2018-03-21T03:08:06.262Z,4.86
2018-03-21T03:09:06.268Z,4.84
2018-03-21T03:10:06.276Z,4.82
2018-03-21T03:11:06.622Z,4.86
2018-03-21T03:12:06.301Z,4.87
2018-03-21T03:13:06.311Z,4.82
2018-03-21T03:14:06.618Z,4.8
2018-03-21T03:15:06.041Z,4.9
2018-03-21T03:16:06.692Z,4.86
2018-03-21T03:17:06.346Z,4.86
2018-03-21T03:18:06.072Z,4.86
2018-03-21T03:19:06.366Z,4.87
2018-03-21T03:20:06.653Z,4.86
2018-03-21T03:21:06.149Z,4.77
2018-03-21T03:22:06.112Z,4.8
2018-03-21T03:23:06.120Z,4.87
2018-03-21T03:24:06.411Z,4.77
2018-03-21T03:25:06.431Z,4.86
2018-03-21T03:26:06.489Z,4.78
2018-03-21T03:27:06.730Z,4.8
2018-03-21T03:28:06.447Z,4.8
2018-03-21T03:29:06.459Z,4.8
2018-03-21T03:30:06.789Z,4.78
2018-03-21T03:31:06.250Z,4.78
2018-03-21T03:32:06.498Z,4.84
2018-03-21T03:33:06.786Z,4.84
2018-03-21T03:34:06.508Z,4.77
2018-03-21T03:35:06.236Z,4.63
2018-03-21T03:36:06.577Z,4.68
2018-03-21T03:37:06.538Z,4.71
2018-03-21T03:38:06.833Z,4.68
2018-03-21T03:39:06.274Z,4.67
2018-03-21T03:40:06.567Z,4.68
2018-03-21T03:41:06.578Z,4.67
2018-03-21T03:42:06.584Z,4.7
2018-03-21T03:43:06.312Z,4.68
2018-03-21T03:44:06.609Z,4.7
2018-03-21T03:45:06.616Z,4.73
2018-03-21T03:46:06.624Z,4.67
2018-03-21T03:47:06.632Z,4.71
2018-03-21T03:48:06.924Z,4.75
2018-03-21T03:49:06.366Z,4.68
2018-03-21T03:50:06.665Z,4.7
2018-03-21T03:51:06.958Z,4.73
2018-03-21T03:52:06.396Z,4.71
2018-03-21T03:53:06.407Z,4.55
2018-03-21T03:54:06.990Z,4.7
2018-03-21T03:55:06.993Z,4.7
2018-03-21T03:56:06.714Z,4.66
2018-03-21T03:57:06.734Z,4.63
2018-03-21T03:58:06.736Z,4.7
2018-03-21T03:59:07.031Z,4.53
2018-03-21T04:00:06.754Z,4.56
2018-03-21T04:01:06.828Z,4.67
2018-03-21T04:02:06.489Z,4.59
2018-03-21T04:03:07.065Z,4.56
2018-03-21T04:04:06.796Z,4.56
2018-03-21T04:05:07.095Z,4.58
2018-03-21T04:06:06.862Z,4.58
2018-03-21T04:07:06.823Z,4.68
2018-03-21T04:08:06.552Z,4.56
2018-03-21T04:09:07.130Z,4.6
2018-03-21T04:10:06.852Z,4.6
2018-03-21T04:11:06.916Z,4.67
2018-03-21T04:12:06.874Z,4.67
2018-03-21T04:13:07.182Z,4.58
2018-03-21T04:14:07.193Z,4.59
2018-03-21T04:15:07.180Z,4.55
2018-03-21T04:16:06.630Z,4.63
2018-03-21T04:17:06.916Z,4.6
2018-03-21T04:18:06.932Z,4.62
2018-03-21T04:19:06.938Z,4.56
2018-03-21T04:20:07.259Z,4.6
2018-03-21T04:21:06.958Z,4.59
2018-03-21T04:22:06.967Z,4.66
2018-03-21T04:23:06.970Z,4.59
2018-03-21T04:24:06.985Z,4.62
2018-03-21T04:25:07.279Z,4.56
2018-03-21T04:26:07.015Z,4.59
2018-03-21T04:27:07.013Z,4.59
2018-03-21T04:28:07.021Z,4.6
2018-03-21T04:29:06.749Z,4.55
2018-03-21T04:30:07.337Z,4.48
2018-03-21T04:31:06.768Z,4.49
2018-03-21T04:32:07.058Z,4.58
2018-03-21T04:33:07.067Z,4.6
2018-03-21T04:34:07.370Z,4.52
2018-03-21T04:35:07.084Z,4.58
2018-03-21T04:36:06.811Z,4.55
2018-03-21T04:37:07.387Z,4.5
2018-03-21T04:38:06.835Z,4.49
2018-03-21T04:39:07.413Z,4.55
2018-03-21T04:40:07.140Z,4.45
2018-03-21T04:41:06.859Z,4.5
2018-03-21T04:42:07.441Z,4.52
2018-03-21T04:43:07.176Z,4.48
2018-03-21T04:44:07.177Z,4.49
2018-03-21T04:45:07.481Z,4.48
2018-03-21T04:46:06.908Z,4.53
2018-03-21T04:47:07.198Z,4.44
2018-03-21T04:48:07.205Z,4.49
2018-03-21T04:49:06.932Z,4.49
2018-03-21T04:50:07.506Z,4.49
2018-03-21T04:51:07.237Z,4.49
2018-03-21T04:52:07.257Z,4.53
2018-03-21T04:53:07.258Z,4.48
2018-03-21T04:54:07.265Z,4.45
2018-03-21T04:55:07.272Z,4.44
2018-03-21T04:56:07.599Z,4.49
2018-03-21T04:57:07.597Z,4.45
2018-03-21T04:58:07.585Z,4.49
2018-03-21T04:59:07.603Z,4.49
2018-03-21T05:00:07.610Z,4.41
2018-03-21T05:01:07.046Z,4.5
2018-03-21T05:02:07.389Z,4.41
2018-03-21T05:03:07.349Z,4.44
2018-03-21T05:04:07.645Z,4.44
2018-03-21T05:05:07.371Z,4.41
2018-03-21T05:06:07.375Z,4.41
2018-03-21T05:07:07.441Z,4.34
2018-03-21T05:08:07.685Z,4.38
2018-03-21T05:09:07.405Z,4.48
2018-03-21T05:10:07.700Z,4.35
2018-03-21T05:11:07.706Z,4.4
2018-03-21T05:12:07.446Z,4.32
2018-03-21T05:13:07.733Z,4.37
2018-03-21T05:14:07.450Z,4.3
2018-03-21T05:15:07.465Z,4.4
2018-03-21T05:16:07.472Z,4.35
2018-03-21T05:17:07.767Z,4.41
2018-03-21T05:18:07.496Z,4.4
2018-03-21T05:19:07.788Z,4.34
2018-03-21T05:20:07.254Z,4.4
2018-03-21T05:21:07.235Z,4.35
2018-03-21T05:22:07.866Z,4.4
2018-03-21T05:23:07.549Z,4.35
2018-03-21T05:24:07.842Z,4.37
2018-03-21T05:25:07.560Z,4.32
2018-03-21T05:26:07.289Z,4.37
2018-03-21T05:27:07.860Z,4.32
2018-03-21T05:28:07.586Z,4.37
2018-03-21T05:29:07.331Z,4.32
2018-03-21T05:30:07.602Z,4.37
2018-03-21T05:31:07.608Z,4.41
2018-03-21T05:32:07.945Z,4.35
2018-03-21T05:33:07.349Z,4.37
2018-03-21T05:34:07.635Z,4.32
2018-03-21T05:35:07.366Z,4.37
2018-03-21T05:36:07.375Z,4.32
2018-03-21T05:37:07.718Z,4.34
2018-03-21T05:38:07.679Z,4.4
2018-03-21T05:39:08.584Z,4.3
2018-03-21T05:40:07.695Z,4.31
2018-03-21T05:41:07.715Z,4.38
2018-03-21T05:42:07.780Z,4.41
2018-03-21T05:43:07.724Z,4.31
2018-03-21T05:44:08.017Z,4.41
2018-03-21T05:45:08.039Z,4.34
2018-03-21T05:46:08.036Z,4.42
2018-03-21T05:47:08.053Z,4.32
2018-03-21T05:48:07.494Z,4.34
2018-03-21T05:49:07.500Z,4.32
2018-03-21T05:50:07.504Z,4.31
2018-03-21T05:51:07.521Z,4.3
2018-03-21T05:52:07.524Z,4.34
2018-03-21T05:53:07.815Z,4.4
2018-03-21T05:54:08.109Z,4.31
2018-03-21T05:55:08.128Z,4.28
2018-03-21T05:56:07.846Z,4.41
2018-03-21T05:57:08.157Z,4.37
2018-03-21T05:58:08.143Z,4.32
2018-03-21T05:59:08.154Z,4.35
2018-03-21T06:00:08.248Z,4.37
2018-03-21T06:01:07.612Z,4.37
2018-03-21T06:02:08.187Z,4.35
2018-03-21T06:03:07.630Z,4.35
2018-03-21T06:04:08.206Z,4.34
2018-03-21T06:05:08.473Z,4.35
2018-03-21T06:06:08.243Z,4.35
2018-03-21T06:07:07.662Z,4.41
2018-03-21T06:08:08.239Z,4.35
2018-03-21T06:09:08.253Z,4.44
2018-03-21T06:10:07.977Z,4.38
2018-03-21T06:11:08.266Z,4.35
2018-03-21T06:12:08.039Z,4.35
2018-03-21T06:13:08.284Z,4.48
2018-03-21T06:14:08.011Z,4.45
2018-03-21T06:15:08.019Z,4.42
2018-03-21T06:16:08.031Z,4.44
2018-03-21T06:17:07.754Z,4.45
2018-03-21T06:18:08.048Z,4.48
2018-03-21T06:19:08.070Z,4.45
2018-03-21T06:20:08.359Z,4.5
2018-03-21T06:21:08.072Z,4.48
2018-03-21T06:22:08.365Z,4.48
2018-03-21T06:23:08.100Z,4.45
2018-03-21T06:24:08.386Z,4.53
2018-03-21T06:25:07.828Z,4.5
2018-03-21T06:26:08.122Z,4.48
2018-03-21T06:27:08.127Z,4.52
2018-03-21T06:28:08.170Z,4.49
2018-03-21T06:29:08.148Z,4.49
2018-03-21T06:30:08.159Z,4.45
2018-03-21T06:31:08.460Z,4.55
2018-03-21T06:32:08.176Z,4.52
2018-03-21T06:33:08.185Z,4.55
2018-03-21T06:34:08.478Z,4.55
2018-03-21T06:35:08.204Z,4.53
2018-03-21T06:36:08.221Z,4.55
2018-03-21T06:37:08.509Z,4.56
2018-03-21T06:38:08.594Z,4.53
2018-03-21T06:39:08.243Z,4.55
2018-03-21T06:40:08.536Z,4.56
2018-03-21T06:41:08.259Z,4.6
2018-03-21T06:42:08.563Z,4.62
2018-03-21T06:43:08.284Z,4.62
2018-03-21T06:44:08.293Z,4.58
2018-03-21T06:45:08.582Z,4.58
2018-03-21T06:46:08.307Z,4.6
2018-03-21T06:47:08.657Z,4.58
2018-03-21T06:48:08.658Z,4.59
2018-03-21T06:49:08.334Z,4.68
2018-03-21T06:50:08.693Z,4.58
2018-03-21T06:51:08.357Z,4.73
2018-03-21T06:52:08.086Z,4.7
2018-03-21T06:53:08.709Z,4.67
2018-03-21T06:54:08.664Z,4.74
2018-03-21T06:55:08.450Z,4.73
2018-03-21T06:56:08.120Z,4.74
2018-03-21T06:57:08.689Z,4.75
2018-03-21T06:58:08.471Z,4.86
2018-03-21T06:59:08.711Z,4.71
2018-03-21T07:00:08.436Z,4.84
2018-03-21T07:01:08.450Z,4.86
2018-03-21T07:02:08.456Z,4.94
2018-03-21T07:03:08.522Z,4.84
2018-03-21T07:04:08.476Z,4.8
2018-03-21T07:05:08.767Z,4.87
2018-03-21T07:06:08.827Z,4.89
2018-03-21T07:07:08.784Z,4.96
2018-03-21T07:08:08.849Z,4.97
2018-03-21T07:09:08.241Z,4.92
2018-03-21T07:10:08.839Z,4.96
2018-03-21T07:11:08.258Z,4.99
2018-03-21T07:12:08.557Z,4.89
2018-03-21T07:13:08.839Z,5.1
2018-03-21T07:14:08.566Z,5.02
2018-03-21T07:15:08.864Z,5.04
2018-03-21T07:16:08.605Z,4.97
2018-03-21T07:17:08.597Z,4.94
2018-03-21T07:18:08.604Z,5.02
2018-03-21T07:19:08.616Z,5.08
2018-03-21T07:20:08.918Z,5.11
2018-03-21T07:21:08.351Z,5.12
2018-03-21T07:22:08.646Z,5.15
2018-03-21T07:23:08.962Z,5.1
2018-03-21T07:24:08.664Z,5.1
2018-03-21T07:25:08.388Z,5.12
2018-03-21T07:26:08.965Z,5.18
2018-03-21T07:27:08.979Z,5.2
2018-03-21T07:28:08.697Z,5.3
2018-03-21T07:29:08.426Z,5.29
2018-03-21T07:30:09.002Z,5.26
2018-03-21T07:31:09.140Z,5.15
2018-03-21T07:32:08.745Z,5.23
2018-03-21T07:33:08.803Z,5.15
2018-03-21T07:34:09.048Z,5.26
2018-03-21T07:35:09.053Z,5.35
2018-03-21T07:36:09.064Z,5.32
2018-03-21T07:37:08.499Z,5.32
2018-03-21T07:38:08.562Z,5.35
2018-03-21T07:39:09.294Z,5.3
2018-03-21T07:40:08.816Z,5.3
2018-03-21T07:41:09.109Z,5.29
2018-03-21T07:42:08.830Z,5.35
2018-03-21T07:43:08.841Z,5.44
2018-03-21T07:44:08.853Z,5.43
2018-03-21T07:45:08.957Z,5.39
2018-03-21T07:46:08.587Z,5.47
2018-03-21T07:47:09.443Z,5.48
2018-03-21T07:48:09.452Z,5.44
2018-03-21T07:49:09.184Z,5.5
2018-03-21T07:50:08.907Z,5.48
2018-03-21T07:51:08.919Z,5.54
2018-03-21T07:52:08.930Z,5.56
2018-03-21T07:53:09.276Z,5.51
2018-03-21T07:54:08.954Z,5.61
2018-03-21T07:55:08.961Z,5.72
2018-03-21T07:56:08.972Z,5.69
2018-03-21T07:57:09.258Z,5.65
2018-03-21T07:58:09.320Z,5.61
2018-03-21T07:59:08.998Z,5.75
2018-03-21T08:00:09.285Z,5.79
2018-03-21T08:01:09.295Z,5.8
2018-03-21T08:02:09.028Z,5.73
2018-03-21T08:03:09.086Z,5.83
2018-03-21T08:04:09.072Z,5.91
2018-03-21T08:05:09.336Z,5.91
2018-03-21T08:06:09.355Z,5.93
2018-03-21T08:07:09.459Z,5.9
2018-03-21T08:08:09.082Z,5.97
2018-03-21T08:09:09.095Z,5.91
2018-03-21T08:10:09.455Z,6.04
2018-03-21T08:11:08.828Z,6.01
2018-03-21T08:12:09.408Z,6.05
2018-03-21T08:13:09.468Z,5.98
2018-03-21T08:14:08.862Z,6.05
2018-03-21T08:15:09.156Z,6.02
2018-03-21T08:16:09.169Z,6.2
2018-03-21T08:17:09.176Z,6.12
2018-03-21T08:18:09.181Z,6.19
2018-03-21T08:19:09.477Z,6.11
2018-03-21T08:20:09.206Z,6.19
2018-03-21T08:21:09.223Z,6.24
2018-03-21T08:22:09.219Z,6.28
2018-03-21T08:23:09.515Z,6.31
2018-03-21T08:24:09.247Z,6.36
2018-03-21T08:25:09.331Z,6.33
2018-03-21T08:26:09.261Z,6.33
2018-03-21T08:27:09.281Z,6.44
2018-03-21T08:28:09.578Z,6.45
2018-03-21T08:29:09.290Z,6.49
2018-03-21T08:30:09.587Z,6.45
2018-03-21T08:31:09.028Z,6.59
2018-03-21T08:32:09.040Z,6.57
2018-03-21T08:33:09.331Z,6.6
2018-03-21T08:34:09.680Z,6.54
2018-03-21T08:35:09.358Z,6.6
2018-03-21T08:36:09.645Z,6.54
2018-03-21T08:37:09.390Z,6.62
2018-03-21T08:38:09.142Z,6.67
2018-03-21T08:39:09.722Z,6.62
2018-03-21T08:40:09.400Z,6.59
2018-03-21T08:41:09.694Z,6.74
2018-03-21T08:42:09.422Z,6.64
2018-03-21T08:43:09.724Z,6.62
2018-03-21T08:44:09.446Z,6.62
2018-03-21T08:45:09.733Z,6.6
2018-03-21T08:46:09.185Z,6.63
2018-03-21T08:47:09.757Z,6.62
2018-03-21T08:48:09.500Z,6.67
2018-03-21T08:49:09.218Z,6.63
2018-03-21T08:50:09.788Z,6.69
2018-03-21T08:51:09.796Z,6.67
2018-03-21T08:52:09.532Z,6.72
2018-03-21T08:53:09.260Z,6.66
2018-03-21T08:54:09.602Z,6.69
2018-03-21T08:55:10.035Z,6.75
2018-03-21T08:56:09.313Z,6.77
2018-03-21T08:57:09.576Z,6.72
2018-03-21T08:58:09.582Z,6.77
2018-03-21T08:59:09.360Z,6.81
2018-03-21T09:00:09.321Z,6.78
2018-03-21T09:01:09.905Z,6.78
2018-03-21T09:02:09.340Z,6.84
2018-03-21T09:03:09.633Z,6.85
2018-03-21T09:04:09.648Z,6.93
2018-03-21T09:05:09.939Z,6.89
2018-03-21T09:06:09.665Z,7.02
2018-03-21T09:07:09.788Z,7.03
2018-03-21T09:08:09.696Z,7.06
2018-03-21T09:09:09.979Z,7.05
2018-03-21T09:10:09.714Z,7.02
2018-03-21T09:11:10.005Z,7.06
2018-03-21T09:12:10.023Z,7.11
2018-03-21T09:13:10.095Z,7.18
2018-03-21T09:14:09.472Z,7.13
2018-03-21T09:15:10.046Z,7.07
2018-03-21T09:16:09.776Z,7.06
2018-03-21T09:17:10.068Z,7.15
2018-03-21T09:18:09.793Z,7.17
2018-03-21T09:19:09.805Z,7.2
2018-03-21T09:20:09.821Z,7.15
2018-03-21T09:21:09.824Z,7.18
2018-03-21T09:22:09.596Z,7.2
2018-03-21T09:23:10.125Z,7.2
2018-03-21T09:24:09.855Z,7.2
2018-03-21T09:25:10.156Z,7.18
2018-03-21T09:26:10.274Z,7.21
2018-03-21T09:27:10.184Z,7.24
2018-03-21T09:28:10.225Z,7.2
2018-03-21T09:29:09.903Z,7.33
2018-03-21T09:30:09.921Z,7.36
2018-03-21T09:31:09.644Z,7.25
2018-03-21T09:32:09.937Z,7.38
2018-03-21T09:33:10.229Z,7.38
2018-03-21T09:34:09.959Z,7.47
2018-03-21T09:35:09.972Z,7.4
2018-03-21T09:36:10.266Z,7.42
2018-03-21T09:37:09.994Z,7.51
2018-03-21T09:38:10.006Z,7.5
2018-03-21T09:39:10.040Z,7.58
2018-03-21T09:40:10.353Z,7.66
2018-03-21T09:41:10.314Z,7.67
2018-03-21T09:42:10.047Z,7.67
2018-03-21T09:43:10.063Z,7.73
2018-03-21T09:44:10.065Z,7.76
2018-03-21T09:45:10.076Z,7.82
2018-03-21T09:46:10.089Z,7.82
2018-03-21T09:47:10.098Z,7.77
2018-03-21T09:48:10.117Z,7.79
2018-03-21T09:49:10.406Z,7.77
2018-03-21T09:50:10.155Z,7.82
2018-03-21T09:51:10.144Z,7.76
2018-03-21T09:52:10.162Z,7.8
2018-03-21T09:53:10.447Z,7.88
2018-03-21T09:54:10.187Z,7.93
2018-03-21T09:55:10.522Z,7.93
2018-03-21T09:56:10.486Z,7.98
2018-03-21T09:57:10.207Z,7.98
2018-03-21T09:58:09.929Z,7.95
2018-03-21T09:59:10.548Z,8.06
2018-03-21T10:00:10.237Z,8.08
2018-03-21T10:01:10.354Z,8.16
2018-03-21T10:02:10.074Z,8.2
2018-03-21T10:03:10.300Z,8.27
2018-03-21T10:04:10.076Z,8.23
2018-03-21T10:05:10.117Z,8.26
2018-03-21T10:06:10.144Z,8.31
2018-03-21T10:07:10.426Z,8.42
2018-03-21T10:08:10.102Z,8.28
2018-03-21T10:09:10.676Z,8.36
2018-03-21T10:10:10.376Z,8.36
2018-03-21T10:11:10.172Z,8.37
2018-03-21T10:12:10.412Z,8.3
2018-03-21T10:13:10.386Z,8.45
2018-03-21T10:14:10.386Z,8.42
2018-03-21T10:15:10.451Z,8.46
2018-03-21T10:16:10.180Z,8.49
2018-03-21T10:17:10.471Z,8.45
2018-03-21T10:18:10.726Z,8.42
2018-03-21T10:19:10.176Z,8.42
2018-03-21T10:20:10.463Z,8.45
2018-03-21T10:21:10.471Z,8.41
2018-03-21T10:22:10.482Z,8.42
2018-03-21T10:23:10.496Z,8.37
2018-03-21T10:24:10.792Z,8.33
2018-03-21T10:25:10.797Z,8.37
2018-03-21T10:26:10.558Z,8.36
2018-03-21T10:27:10.540Z,8.37
2018-03-21T10:28:10.833Z,8.34
2018-03-21T10:29:10.668Z,8.36
2018-03-21T10:30:10.573Z,8.37
2018-03-21T10:31:10.868Z,8.31
2018-03-21T10:32:10.875Z,8.31
2018-03-21T10:33:10.899Z,8.34
2018-03-21T10:34:10.613Z,8.34
2018-03-21T10:35:10.636Z,8.45
2018-03-21T10:36:10.932Z,8.45
2018-03-21T10:37:10.939Z,8.55
2018-03-21T10:38:10.669Z,8.49
2018-03-21T10:39:10.963Z,8.53
2018-03-21T10:40:10.695Z,8.58
2018-03-21T10:41:10.707Z,8.51
2018-03-21T10:42:10.714Z,8.66
2018-03-21T10:43:10.733Z,8.61
2018-03-21T10:44:11.023Z,8.63
2018-03-21T10:45:10.822Z,8.7
2018-03-21T10:46:10.475Z,8.7
2018-03-21T10:47:10.770Z,8.76
2018-03-21T10:48:11.069Z,8.7
2018-03-21T10:49:11.078Z,8.71
2018-03-21T10:50:10.810Z,8.78
2018-03-21T10:51:10.811Z,8.74
2018-03-21T10:52:11.118Z,8.81
2018-03-21T10:53:10.838Z,8.79
2018-03-21T10:54:10.890Z,8.7
2018-03-21T10:55:10.581Z,8.74
2018-03-21T10:56:10.867Z,8.82
2018-03-21T10:57:10.886Z,8.79
2018-03-21T10:58:11.182Z,8.85
2018-03-21T10:59:10.977Z,8.97
2018-03-21T11:00:10.632Z,8.95
2018-03-21T11:01:11.260Z,8.99
2018-03-21T11:02:11.416Z,9.03
2018-03-21T11:03:10.953Z,9
2018-03-21T11:04:10.682Z,8.97
2018-03-21T11:05:11.260Z,8.99
2018-03-21T11:06:11.323Z,9.02
2018-03-21T11:07:10.998Z,9.06
2018-03-21T11:08:11.434Z,9.02
2018-03-21T11:09:11.038Z,9.06
2018-03-21T11:10:11.030Z,9.13
2018-03-21T11:11:11.042Z,9.11
2018-03-21T11:12:11.056Z,9.16
2018-03-21T11:13:11.355Z,9.19
2018-03-21T11:14:11.401Z,9.23
2018-03-21T11:15:11.376Z,9.25
2018-03-21T11:16:10.870Z,9.28
2018-03-21T11:17:11.401Z,9.36
2018-03-21T11:18:11.411Z,9.43
2018-03-21T11:19:11.161Z,9.39
2018-03-21T11:20:10.868Z,9.39
2018-03-21T11:21:11.498Z,9.39
2018-03-21T11:22:11.459Z,9.37
2018-03-21T11:23:11.193Z,9.37
2018-03-21T11:24:11.518Z,9.44
2018-03-21T11:25:11.269Z,9.39
2018-03-21T11:26:11.222Z,9.46
2018-03-21T11:27:11.234Z,9.32
2018-03-21T11:28:11.534Z,9.4
2018-03-21T11:29:11.273Z,9.36
2018-03-21T11:30:11.561Z,9.36
2018-03-21T11:31:11.616Z,9.29
2018-03-21T11:32:11.580Z,9.34
2018-03-21T11:33:11.597Z,9.36
2018-03-21T11:34:11.797Z,9.41
2018-03-21T11:35:11.617Z,9.46
2018-03-21T11:36:11.679Z,9.44
2018-03-21T11:37:11.360Z,9.36
2018-03-21T11:38:11.664Z,9.4
2018-03-21T11:39:11.384Z,9.36
2018-03-21T11:40:11.676Z,9.4
2018-03-21T11:41:11.462Z,9.34
2018-03-21T11:42:11.172Z,9.34
2018-03-21T11:43:11.710Z,9.37
2018-03-21T11:44:11.732Z,9.41
2018-03-21T11:45:11.744Z,9.43
2018-03-21T11:46:11.470Z,9.39
2018-03-21T11:47:11.765Z,9.5
2018-03-21T11:48:11.777Z,9.44
2018-03-21T11:49:11.513Z,9.37
2018-03-21T11:50:11.593Z,9.4
2018-03-21T11:51:11.899Z,9.46
2018-03-21T11:52:11.830Z,9.44
2018-03-21T11:53:11.844Z,9.47
2018-03-21T11:54:11.570Z,9.43
2018-03-21T11:55:11.874Z,9.43
2018-03-21T11:56:11.589Z,9.48
2018-03-21T11:57:11.886Z,9.41
2018-03-21T11:58:11.615Z,9.41
2018-03-21T11:59:11.920Z,9.47
2018-03-21T12:00:11.928Z,9.46
2018-03-21T12:01:11.944Z,9.41
2018-03-21T12:02:11.664Z,9.44
2018-03-21T12:03:11.964Z,9.43
2018-03-21T12:04:11.687Z,9.46
2018-03-21T12:05:11.989Z,9.5
2018-03-21T12:06:12.003Z,9.37
2018-03-21T12:07:11.746Z,9.41
2018-03-21T12:08:11.747Z,9.43
2018-03-21T12:09:12.036Z,9.46
2018-03-21T12:10:12.057Z,9.44
2018-03-21T12:11:11.776Z,9.4
2018-03-21T12:12:11.838Z,9.43
2018-03-21T12:13:11.523Z,9.44
2018-03-21T12:14:12.103Z,9.43
2018-03-21T12:15:11.546Z,9.44
2018-03-21T12:16:12.124Z,9.5
2018-03-21T12:17:12.181Z,9.47
2018-03-21T12:18:12.149Z,9.47
2018-03-21T12:19:11.880Z,9.46
2018-03-21T12:20:11.886Z,9.4
2018-03-21T12:21:11.908Z,9.44
2018-03-21T12:22:11.926Z,9.44
2018-03-21T12:23:11.930Z,9.46
2018-03-21T12:24:11.945Z,9.43
2018-03-21T12:25:11.671Z,9.4
2018-03-21T12:26:12.257Z,9.32
2018-03-21T12:27:12.316Z,9.37
2018-03-21T12:28:11.989Z,9.37
2018-03-21T12:29:11.996Z,9.37
2018-03-21T12:30:12.015Z,9.31
2018-03-21T12:31:12.024Z,9.36
2018-03-21T12:32:12.085Z,9.32
2018-03-21T12:33:12.052Z,9.29
2018-03-21T12:34:12.069Z,9.37
2018-03-21T12:35:12.076Z,9.37
2018-03-21T12:36:12.090Z,9.4
2018-03-21T12:37:12.096Z,9.39
2018-03-21T12:38:12.519Z,9.39
2018-03-21T12:39:12.416Z,9.44
2018-03-21T12:40:12.140Z,9.56
2018-03-21T12:41:12.149Z,9.46
2018-03-21T12:42:12.213Z,9.51
2018-03-21T12:43:12.464Z,9.44
2018-03-21T12:44:12.485Z,9.43
2018-03-21T12:45:12.498Z,9.44
2018-03-21T12:46:12.503Z,9.51
2018-03-21T12:47:12.566Z,9.59
2018-03-21T12:48:12.528Z,9.61
2018-03-21T12:49:12.555Z,9.58
2018-03-21T12:50:12.285Z,9.59
2018-03-21T12:51:12.560Z,9.59
2018-03-21T12:52:12.010Z,9.56
2018-03-21T12:53:12.584Z,9.54
2018-03-21T12:54:12.317Z,9.54
2018-03-21T12:55:12.323Z,9.51
2018-03-21T12:56:12.993Z,9.59
2018-03-21T12:57:12.684Z,9.61
2018-03-21T12:58:12.366Z,9.61
2018-03-21T12:59:12.377Z,9.61
2018-03-21T13:00:12.689Z,9.59
2018-03-21T13:01:12.400Z,9.72
2018-03-21T13:02:12.716Z,9.72
2018-03-21T13:03:12.426Z,9.72
2018-03-21T13:04:12.721Z,9.65
2018-03-21T13:05:12.452Z,9.62
2018-03-21T13:06:12.525Z,9.68
2018-03-21T13:07:12.486Z,9.56
2018-03-21T13:08:12.498Z,9.68
2018-03-21T13:09:12.504Z,9.68
2018-03-21T13:10:12.515Z,9.73
2018-03-21T13:11:12.569Z,9.66
2018-03-21T13:12:12.824Z,9.72
2018-03-21T13:13:12.567Z,9.64
2018-03-21T13:14:12.280Z,9.69
2018-03-21T13:15:12.883Z,9.68
2018-03-21T13:16:12.967Z,9.66
2018-03-21T13:17:12.891Z,9.73
2018-03-21T13:18:12.914Z,9.82
2018-03-21T13:19:12.344Z,9.8
2018-03-21T13:20:12.934Z,9.86
2018-03-21T13:21:13.050Z,9.77
2018-03-21T13:22:12.664Z,9.83